createdAt,value
2023-07-03T00:01:19.732Z,56.49
2023-07-03T00:04:24.865Z,56.78
2023-07-03T00:07:27.686Z,56.82
2023-07-03T00:10:30.576Z,56.97
2023-07-03T00:13:34.816Z,57.06
2023-07-03T00:16:37.575Z,57.68
2023-07-03T00:19:40.429Z,57.77
2023-07-03T00:22:43.362Z,57.49
2023-07-03T00:25:47.521Z,58.25
2023-07-03T00:28:52.034Z,58.25
2023-07-03T00:31:54.821Z,58.47
2023-07-03T00:34:57.912Z,58.32
2023-07-03T00:38:00.624Z,59.20
2023-07-03T00:41:03.525Z,59.40
2023-07-03T00:44:10.825Z,59.45
2023-07-03T00:47:13.662Z,59.79
2023-07-03T00:50:16.585Z,59.46
2023-07-03T00:53:19.281Z,59.51
2023-07-03T00:56:22.159Z,59.65
2023-07-03T00:59:26.312Z,60.07
2023-07-03T01:02:36.458Z,60.37
2023-07-03T01:05:44.574Z,60.78
2023-07-03T01:08:50.109Z,60.71
2023-07-03T01:11:53.429Z,60.79
2023-07-03T01:15:00.645Z,60.84
2023-07-03T01:18:06.040Z,60.49
2023-07-03T01:21:16.685Z,60.28
2023-07-03T01:24:31.828Z,60.29
2023-07-03T01:27:37.547Z,60.13
2023-07-03T01:30:43.333Z,60.30
2023-07-03T01:33:46.776Z,59.93
2023-07-03T01:36:50.440Z,59.55
2023-07-03T01:39:56.390Z,59.78
2023-07-03T01:42:59.928Z,59.38
2023-07-03T01:46:03.878Z,59.86
2023-07-03T01:49:13.027Z,58.88
2023-07-03T01:52:20.508Z,58.48
2023-07-03T01:55:36.154Z,58.47
2023-07-03T01:58:45.489Z,58.19
2023-07-03T02:01:51.686Z,58.20
2023-07-03T02:05:00.052Z,57.98
2023-07-03T02:08:04.907Z,56.58
2023-07-03T02:11:16.878Z,57.18
2023-07-03T02:14:19.793Z,56.59
2023-07-03T02:17:22.537Z,57.53
2023-07-03T02:20:25.400Z,57.61
2023-07-03T02:23:28.473Z,55.66
2023-07-03T02:26:32.533Z,55.19
2023-07-03T02:29:35.424Z,55.74
2023-07-03T02:32:39.879Z,55.67
2023-07-03T02:35:42.866Z,55.80
2023-07-03T02:38:45.758Z,55.48
2023-07-03T02:41:51.040Z,55.88
2023-07-03T02:44:54.514Z,54.88
2023-07-03T02:47:57.252Z,55.30
2023-07-03T02:51:00.316Z,55.49
2023-07-03T02:54:05.312Z,55.02
2023-07-03T02:57:09.439Z,55.22
2023-07-03T03:00:14.412Z,55.36
2023-07-03T03:03:17.240Z,54.80
2023-07-03T03:06:20.216Z,54.73
2023-07-03T03:09:24.422Z,55.46
2023-07-03T03:12:28.686Z,55.37
2023-07-03T03:15:35.458Z,55.43
2023-07-03T03:18:38.200Z,55.26
2023-07-03T03:21:41.001Z,55.01
2023-07-03T03:24:44.105Z,54.94
2023-07-03T03:27:48.179Z,54.75
2023-07-03T03:30:51.106Z,54.19
2023-07-03T03:33:53.910Z,55.34
2023-07-03T03:36:57.389Z,55.47
2023-07-03T03:40:00.504Z,55.31
2023-07-03T03:43:04.628Z,55.67
2023-07-03T03:46:07.586Z,55.56
2023-07-03T03:49:11.829Z,55.89
2023-07-03T03:52:14.750Z,56.36
2023-07-03T03:55:17.621Z,55.79
2023-07-03T03:58:22.482Z,55.93
2023-07-03T04:01:25.292Z,56.56
2023-07-03T04:04:28.102Z,55.15
2023-07-03T04:07:30.917Z,56.04
2023-07-03T04:10:33.797Z,55.61
2023-07-03T04:13:37.925Z,55.36
2023-07-03T04:16:41.050Z,55.26
2023-07-03T04:19:43.877Z,55.78
2023-07-03T04:22:47.390Z,54.12
2023-07-03T04:25:51.120Z,54.82
2023-07-03T04:28:55.545Z,54.95
2023-07-03T04:31:58.370Z,54.69
2023-07-03T04:35:01.944Z,53.83
2023-07-03T04:38:05.175Z,54.31
2023-07-03T04:41:08.753Z,53.59
2023-07-03T04:44:13.841Z,53.55
2023-07-03T04:47:17.743Z,53.57
2023-07-03T04:50:26.059Z,52.47
2023-07-03T04:53:29.253Z,52.91
2023-07-03T04:56:34.662Z,51.80
2023-07-03T04:59:38.771Z,52.71
2023-07-03T05:02:41.690Z,50.95
2023-07-03T05:05:44.409Z,51.35
2023-07-03T05:08:48.211Z,50.47
2023-07-03T05:11:50.981Z,49.69
2023-07-03T05:14:56.144Z,50.70
2023-07-03T05:17:59.688Z,50.11
2023-07-03T05:21:02.883Z,50.69
2023-07-03T05:24:05.969Z,49.50
2023-07-03T05:27:08.970Z,49.02
2023-07-03T05:30:14.215Z,47.86
2023-07-03T05:33:17.130Z,48.41
2023-07-03T05:36:20.222Z,47.14
2023-07-03T05:39:22.995Z,47.05
2023-07-03T05:42:26.173Z,47.60
2023-07-03T05:45:30.279Z,48.31
2023-07-03T05:48:32.983Z,49.06
2023-07-03T05:51:35.704Z,48.85
2023-07-03T05:54:38.530Z,48.35
2023-07-03T05:57:41.275Z,49.61
2023-07-03T06:00:46.385Z,49.97
2023-07-03T06:03:49.836Z,49.99
2023-07-03T06:06:54.448Z,49.89
2023-07-03T06:09:58.620Z,47.27
2023-07-03T06:13:01.436Z,47.78
2023-07-03T06:16:06.183Z,46.81
2023-07-03T06:19:08.947Z,47.14
2023-07-03T06:22:11.697Z,47.12
2023-07-03T06:25:14.558Z,46.19
2023-07-03T06:28:17.274Z,47.01
2023-07-03T06:31:21.553Z,47.40
2023-07-03T06:34:24.457Z,47.90
2023-07-03T06:37:27.206Z,48.75
2023-07-03T06:40:29.985Z,48.01
2023-07-03T06:43:32.833Z,47.94
2023-07-03T06:46:36.987Z,48.60
2023-07-03T06:49:39.892Z,48.51
2023-07-03T06:52:43.696Z,49.02
2023-07-03T06:55:46.573Z,48.91
2023-07-03T06:58:49.970Z,48.41
2023-07-03T07:01:54.254Z,47.31
2023-07-03T07:04:59.378Z,48.55
2023-07-03T07:08:03.638Z,47.74
2023-07-03T07:11:10.642Z,46.85
2023-07-03T07:14:13.419Z,47.46
2023-07-03T07:17:17.555Z,46.87
2023-07-03T07:20:20.671Z,47.30
2023-07-03T07:23:23.456Z,47.59
2023-07-03T07:26:29.591Z,45.09
2023-07-03T07:29:32.475Z,45.79
2023-07-03T07:32:37.248Z,46.05
2023-07-03T07:35:40.260Z,45.27
2023-07-03T07:38:43.421Z,45.33
2023-07-03T07:41:46.911Z,43.30
2023-07-03T07:44:50.279Z,43.62
2023-07-03T07:47:54.900Z,43.03
2023-07-03T07:50:58.124Z,43.08
2023-07-03T07:54:01.011Z,44.28
2023-07-03T07:57:04.050Z,42.83
2023-07-03T08:00:08.161Z,42.60
2023-07-03T08:03:12.498Z,44.08
2023-07-03T08:06:16.756Z,43.45
2023-07-03T08:09:19.450Z,43.13
2023-07-03T08:12:22.766Z,44.27
2023-07-03T08:15:25.718Z,43.23
2023-07-03T08:18:29.958Z,42.73
2023-07-03T08:21:32.877Z,42.03
2023-07-03T08:24:35.653Z,42.03
2023-07-03T08:27:38.474Z,41.54
2023-07-03T08:30:41.145Z,40.42
2023-07-03T08:33:45.276Z,38.20
2023-07-03T08:39:53.762Z,36.31
2023-07-03T08:42:59.331Z,36.41
2023-07-03T08:46:03.573Z,34.80
2023-07-03T08:49:08.754Z,34.04
2023-07-03T08:52:11.996Z,32.97
2023-07-03T08:55:20.684Z,32.51
2023-07-03T08:58:23.435Z,32.50
2023-07-03T09:01:34.218Z,30.74
2023-07-03T09:04:53.507Z,31.60
2023-07-03T09:08:00.403Z,31.71
2023-07-03T09:11:04.348Z,30.29
2023-07-03T09:14:10.653Z,28.74
2023-07-03T09:17:14.408Z,29.11
2023-07-03T09:20:19.152Z,30.62
2023-07-03T09:23:26.034Z,31.86
2023-07-03T09:26:35.356Z,33.55
2023-07-03T09:29:40.164Z,34.08
2023-07-03T09:32:43.045Z,33.36
2023-07-03T09:35:48.911Z,34.90
2023-07-03T09:38:51.991Z,34.90
2023-07-03T09:42:06.277Z,35.04
2023-07-03T09:45:16.249Z,33.15
2023-07-03T09:48:24.173Z,32.04
2023-07-03T09:51:31.278Z,32.02
2023-07-03T09:54:34.885Z,32.75
2023-07-03T09:57:39.818Z,32.95
2023-07-03T10:00:49.375Z,31.21
2023-07-03T10:04:04.216Z,28.18
2023-07-03T10:07:27.874Z,29.86
2023-07-03T10:13:46.602Z,27.86
2023-07-03T10:16:51.400Z,29.41
2023-07-03T10:19:59.261Z,28.37
2023-07-03T10:23:06.743Z,30.06
2023-07-03T10:26:15.289Z,30.94
2023-07-03T10:29:24.405Z,30.81
2023-07-03T10:32:34.253Z,30.93
2023-07-03T10:35:37.361Z,31.55
2023-07-03T10:38:50.845Z,32.80
2023-07-03T10:41:59.101Z,32.02
2023-07-03T10:45:06.374Z,32.38
2023-07-03T10:48:15.150Z,31.31
2023-07-03T10:51:24.974Z,32.37
2023-07-03T10:54:33.760Z,32.49
2023-07-03T11:01:12.833Z,33.60
2023-07-03T11:04:25.817Z,34.62
2023-07-03T11:07:34.940Z,35.06
2023-07-03T11:10:49.668Z,35.57
2023-07-03T11:14:00.961Z,35.50
2023-07-03T11:17:14.509Z,34.07
2023-07-03T11:20:26.074Z,32.63
2023-07-03T11:23:36.143Z,32.90
2023-07-03T11:29:48.202Z,33.66
2023-07-03T11:32:52.265Z,34.17
2023-07-03T11:35:56.274Z,35.67
2023-07-03T11:45:32.881Z,32.40
2023-07-03T11:48:46.514Z,32.24
2023-07-03T11:51:49.265Z,33.99
2023-07-03T11:58:27.454Z,36.01
2023-07-03T12:01:32.068Z,35.79
2023-07-03T12:04:52.718Z,36.10
2023-07-03T12:07:55.664Z,36.29
2023-07-03T12:11:00.329Z,36.87
2023-07-03T12:14:04.404Z,37.18
2023-07-03T12:17:18.124Z,36.17
2023-07-03T12:20:23.106Z,37.38
2023-07-03T12:23:35.683Z,37.88
2023-07-03T12:26:51.986Z,37.67
2023-07-03T12:29:56.107Z,37.62
2023-07-03T12:33:00.609Z,37.91
2023-07-03T12:36:03.398Z,36.69
2023-07-03T12:39:14.418Z,36.57
2023-07-03T12:42:22.519Z,38.26
2023-07-03T12:45:28.916Z,38.05
2023-07-03T12:48:31.657Z,38.22
2023-07-03T12:51:39.329Z,35.84
2023-07-03T12:54:42.143Z,36.02
2023-07-03T12:57:46.013Z,34.97
2023-07-03T13:01:00.672Z,34.43
2023-07-03T13:04:04.827Z,35.25
2023-07-03T13:07:07.866Z,33.68
2023-07-03T13:10:15.327Z,34.54
2023-07-03T13:13:20.777Z,32.98
2023-07-03T13:16:24.924Z,33.09
2023-07-03T13:19:31.612Z,32.65
2023-07-03T13:22:34.624Z,33.35
2023-07-03T13:25:39.635Z,34.11
2023-07-03T13:28:52.635Z,33.70
2023-07-03T13:32:14.352Z,33.19
2023-07-03T13:35:28.281Z,33.18
2023-07-03T13:38:33.000Z,33.90
2023-07-03T13:41:36.834Z,32.61
2023-07-03T13:44:39.662Z,33.63
2023-07-03T13:47:44.972Z,32.95
2023-07-03T13:50:49.168Z,33.17
2023-07-03T13:53:56.271Z,33.26
2023-07-03T13:57:02.590Z,33.94
2023-07-03T14:00:06.354Z,33.75
2023-07-03T14:03:10.980Z,34.05
2023-07-03T14:06:14.547Z,34.92
2023-07-03T14:09:17.638Z,36.08
2023-07-03T14:12:20.518Z,35.11
2023-07-03T14:15:26.570Z,34.51
2023-07-03T14:18:30.922Z,33.55
2023-07-03T14:21:34.589Z,33.14
2023-07-03T14:24:37.290Z,34.28
2023-07-03T14:27:41.195Z,34.51
2023-07-03T14:30:44.083Z,34.78
2023-07-03T14:33:48.323Z,35.09
2023-07-03T14:36:51.179Z,34.54
2023-07-03T14:39:54.055Z,35.11
2023-07-03T14:42:56.909Z,34.00
2023-07-03T14:45:59.799Z,33.70
2023-07-03T14:49:04.038Z,34.04
2023-07-03T14:52:07.232Z,34.36
2023-07-03T14:55:10.798Z,34.30
2023-07-03T14:58:14.034Z,35.37
2023-07-03T15:01:16.808Z,35.21
2023-07-03T15:04:21.236Z,34.90
2023-07-03T15:07:24.311Z,36.00
2023-07-03T15:10:27.346Z,35.20
2023-07-03T15:13:30.236Z,34.65
2023-07-03T15:16:34.875Z,34.73
2023-07-03T15:19:39.525Z,35.72
2023-07-03T15:22:42.363Z,35.92
2023-07-03T15:25:45.084Z,35.85
2023-07-03T15:28:48.036Z,36.21
2023-07-03T15:31:51.329Z,36.08
2023-07-03T15:34:55.957Z,36.04
2023-07-03T15:37:58.724Z,33.88
2023-07-03T15:41:01.668Z,33.52
2023-07-03T15:44:04.870Z,33.46
2023-07-03T15:47:08.685Z,34.03
2023-07-03T15:50:13.123Z,33.91
2023-07-03T15:53:15.990Z,33.74
2023-07-03T15:56:19.999Z,34.36
2023-07-03T15:59:23.318Z,33.72
2023-07-03T16:02:26.088Z,34.09
2023-07-03T16:05:30.350Z,34.16
2023-07-03T16:08:35.029Z,34.37
2023-07-03T16:11:38.308Z,34.42
2023-07-03T16:14:41.356Z,33.45
2023-07-03T16:17:44.153Z,34.11
2023-07-03T16:20:56.065Z,34.26
2023-07-03T16:23:59.778Z,34.71
2023-07-03T16:27:04.452Z,34.90
2023-07-03T16:30:09.072Z,35.65
2023-07-03T16:33:11.825Z,34.56
2023-07-03T16:36:17.448Z,34.58
2023-07-03T16:39:20.305Z,34.81
2023-07-03T16:42:23.070Z,34.32
2023-07-03T16:45:25.851Z,34.82
2023-07-03T16:48:29.827Z,34.72
2023-07-03T16:51:34.041Z,35.41
2023-07-03T16:54:37.200Z,34.90
2023-07-03T16:57:39.927Z,34.93
2023-07-03T17:00:43.054Z,36.01
2023-07-03T17:03:46.196Z,36.03
2023-07-03T17:06:50.739Z,36.30
2023-07-03T17:09:53.464Z,36.29
2023-07-03T17:12:56.409Z,36.57
2023-07-03T17:15:59.507Z,37.10
2023-07-03T17:19:02.245Z,36.97
2023-07-03T17:22:07.691Z,36.20
2023-07-03T17:25:11.170Z,37.54
2023-07-03T17:28:15.650Z,37.46
2023-07-03T17:31:24.647Z,37.77
2023-07-03T17:34:27.890Z,37.88
2023-07-03T17:37:32.073Z,37.60
2023-07-03T17:40:34.863Z,38.33
2023-07-03T17:43:38.035Z,38.36
2023-07-03T17:46:41.330Z,38.11
2023-07-03T17:49:44.072Z,38.04
2023-07-03T17:52:48.256Z,38.59
2023-07-03T17:55:51.411Z,38.70
2023-07-03T17:58:54.631Z,38.84
2023-07-03T18:01:57.980Z,38.57
2023-07-03T18:05:00.957Z,38.50
2023-07-03T18:08:05.536Z,38.97
2023-07-03T18:11:08.452Z,38.91
2023-07-03T18:14:11.354Z,39.01
2023-07-03T18:17:14.281Z,38.84
2023-07-03T18:20:17.078Z,39.84
2023-07-03T18:23:21.419Z,38.78
2023-07-03T18:26:24.206Z,39.60
2023-07-03T18:29:27.420Z,39.66
2023-07-03T18:32:34.792Z,39.46
2023-07-03T18:35:38.197Z,39.00
2023-07-03T18:38:42.865Z,39.64
2023-07-03T18:41:45.704Z,39.33
2023-07-03T18:44:48.516Z,39.91
2023-07-03T18:47:51.279Z,40.65
2023-07-03T18:50:54.190Z,40.43
2023-07-03T18:53:58.425Z,40.65
2023-07-03T18:57:01.340Z,40.78
2023-07-03T19:00:05.380Z,41.20
2023-07-03T19:03:08.247Z,41.59
2023-07-03T19:06:15.375Z,41.86
2023-07-03T19:09:19.941Z,42.48
2023-07-03T19:12:24.556Z,42.54
2023-07-03T19:15:27.490Z,42.63
2023-07-03T19:18:31.060Z,42.51
2023-07-03T19:21:33.905Z,43.03
2023-07-03T19:24:39.447Z,43.17
2023-07-03T19:27:42.224Z,44.04
2023-07-03T19:30:52.456Z,43.73
2023-07-03T19:33:56.168Z,43.57
2023-07-03T19:37:00.530Z,44.04
2023-07-03T19:40:08.498Z,43.38
2023-07-03T19:43:11.597Z,43.80
2023-07-03T19:46:14.474Z,44.37
2023-07-03T19:49:17.205Z,45.10
2023-07-03T19:52:22.266Z,44.96
2023-07-03T19:55:28.066Z,46.15
2023-07-03T19:58:31.276Z,45.85
2023-07-03T20:01:34.328Z,46.11
2023-07-03T20:04:37.910Z,45.98
2023-07-03T20:07:41.018Z,46.08
2023-07-03T20:10:47.706Z,46.25
2023-07-03T20:13:51.153Z,46.51
2023-07-03T20:16:54.295Z,46.71
2023-07-03T20:19:57.646Z,46.73
2023-07-03T20:23:00.581Z,46.07
2023-07-03T20:26:05.081Z,46.03
2023-07-03T20:29:07.841Z,46.40
2023-07-03T20:32:11.102Z,47.00
2023-07-03T20:35:13.833Z,46.83
2023-07-03T20:38:18.928Z,47.58
2023-07-03T20:41:24.076Z,48.07
2023-07-03T20:44:27.060Z,48.16
2023-07-03T20:47:31.877Z,48.49
2023-07-03T20:50:34.804Z,48.67
2023-07-03T20:53:59.480Z,48.65
2023-07-03T20:57:05.401Z,48.30
2023-07-03T21:00:13.681Z,49.27
2023-07-03T21:03:16.562Z,49.62
2023-07-03T21:06:21.096Z,49.65
2023-07-03T21:09:24.389Z,50.57
2023-07-03T21:12:28.657Z,50.78
2023-07-03T21:15:34.329Z,50.37
2023-07-03T21:18:37.907Z,50.84
2023-07-03T21:21:41.696Z,50.85
2023-07-03T21:24:44.727Z,51.48
2023-07-03T21:27:48.972Z,52.25
2023-07-03T21:30:52.055Z,52.09
2023-07-03T21:33:55.246Z,52.33
2023-07-03T21:36:58.002Z,52.87
2023-07-03T21:40:04.024Z,53.52
2023-07-03T21:43:08.139Z,53.79
2023-07-03T21:46:14.691Z,53.33
2023-07-03T21:49:18.088Z,53.76
2023-07-03T21:52:20.931Z,52.67
2023-07-03T21:55:23.856Z,53.13
2023-07-03T21:58:27.984Z,52.09
2023-07-03T22:01:34.402Z,52.35
2023-07-03T22:04:37.512Z,51.27
2023-07-03T22:07:40.311Z,50.15
2023-07-03T22:10:43.176Z,49.87
2023-07-03T22:13:47.516Z,49.96
2023-07-03T22:16:50.407Z,49.60
2023-07-03T22:19:53.575Z,49.93
2023-07-03T22:22:56.313Z,48.95
2023-07-03T22:26:00.576Z,48.31
2023-07-03T22:29:04.710Z,48.44
2023-07-03T22:32:08.876Z,48.27
2023-07-03T22:35:12.345Z,48.25
2023-07-03T22:38:15.199Z,48.33
2023-07-03T22:41:18.114Z,47.87
2023-07-03T22:44:22.250Z,48.05
2023-07-03T22:47:25.262Z,47.82
2023-07-03T22:50:28.586Z,47.41
2023-07-03T22:53:31.317Z,46.54
2023-07-03T22:56:34.148Z,47.32
2023-07-03T22:59:38.240Z,47.48
2023-07-03T23:02:41.181Z,46.37
2023-07-03T23:05:46.018Z,46.95
2023-07-03T23:08:50.517Z,47.98
2023-07-03T23:11:54.361Z,47.86
2023-07-03T23:14:58.773Z,47.73
2023-07-03T23:18:01.642Z,48.81
2023-07-03T23:21:10.355Z,49.12
2023-07-03T23:24:13.088Z,49.47
2023-07-03T23:27:20.573Z,49.54
2023-07-03T23:30:24.672Z,49.03
2023-07-03T23:33:28.265Z,49.53
2023-07-03T23:36:31.609Z,49.60
2023-07-03T23:39:34.972Z,48.42
2023-07-03T23:42:37.854Z,48.87
2023-07-03T23:45:44.159Z,48.95
2023-07-03T23:48:46.994Z,49.46
2023-07-03T23:51:53.171Z,49.05
2023-07-03T23:54:58.794Z,48.73
2023-07-03T23:58:01.768Z,48.84
